sensor_id;sensor_type;location;lat;lon;timestamp;P1;durP1;ratioP1;P2;durP2;ratioP2
2898;SDS011;1459;50.864;6.438;2022-10-04T00:00:59;11.45;;;7.80;;
2898;SDS011;1459;50.864;6.438;2022-10-04T00:03:31;11.32;;;6.60;;
2898;SDS011;1459;50.864;6.438;2022-10-04T00:06:02;8.75;;;6.75;;
2898;SDS011;1459;50.864;6.438;2022-10-04T00:08:33;11.60;;;7.80;;
2898;SDS011;1459;50.864;6.438;2022-10-04T00:11:13;11.57;;;6.60;;
2898;SDS011;1459;50.864;6.438;2022-10-04T00:13:48;9.85;;;6.90;;
2898;SDS011;1459;50.864;6.438;2022-10-04T00:16:19;13.88;;;7.20;;
2898;SDS011;1459;50.864;6.438;2022-10-04T00:18:53;8.25;;;6.55;;
2898;SDS011;1459;50.864;6.438;2022-10-04T00:24:59;10.57;;;6.32;;
2898;SDS011;1459;50.864;6.438;2022-10-04T00:31:11;7.45;;;6.72;;
2898;SDS011;1459;50.864;6.438;2022-10-04T00:33:43;11.73;;;7.50;;
2898;SDS011;1459;50.864;6.438;2022-10-04T00:39:14;8.27;;;6.45;;
2898;SDS011;1459;50.864;6.438;2022-10-04T00:42:16;9.45;;;6.32;;
2898;SDS011;1459;50.864;6.438;2022-10-04T00:45:04;9.50;;;6.00;;
2898;SDS011;1459;50.864;6.438;2022-10-04T00:47:43;7.10;;;6.35;;
2898;SDS011;1459;50.864;6.438;2022-10-04T00:50:37;10.13;;;6.35;;
2898;SDS011;1459;50.864;6.438;2022-10-04T00:53:12;11.15;;;6.03;;
2898;SDS011;1459;50.864;6.438;2022-10-04T00:55:47;9.63;;;6.63;;
2898;SDS011;1459;50.864;6.438;2022-10-04T00:58:19;8.73;;;6.50;;
2898;SDS011;1459;50.864;6.438;2022-10-04T01:00:52;8.30;;;6.82;;
2898;SDS011;1459;50.864;6.438;2022-10-04T01:03:22;9.25;;;6.00;;
2898;SDS011;1459;50.864;6.438;2022-10-04T01:05:55;7.90;;;5.82;;
2898;SDS011;1459;50.864;6.438;2022-10-04T01:08:26;10.68;;;6.75;;
2898;SDS011;1459;50.864;6.438;2022-10-04T01:10:57;9.40;;;6.60;;
2898;SDS011;1459;50.864;6.438;2022-10-04T01:13:29;10.82;;;6.68;;
2898;SDS011;1459;50.864;6.438;2022-10-04T01:16:04;8.95;;;6.28;;
2898;SDS011;1459;50.864;6.438;2022-10-04T01:18:38;9.73;;;6.53;;
2898;SDS011;1459;50.864;6.438;2022-10-04T01:21:06;9.88;;;7.68;;
2898;SDS011;1459;50.864;6.438;2022-10-04T01:23:48;8.63;;;7.40;;
2898;SDS011;1459;50.864;6.438;2022-10-04T01:26:36;10.48;;;7.10;;
2898;SDS011;1459;50.864;6.438;2022-10-04T01:29:08;8.32;;;6.18;;
2898;SDS011;1459;50.864;6.438;2022-10-04T01:31:39;8.18;;;6.85;;
2898;SDS011;1459;50.864;6.438;2022-10-04T01:34:09;9.07;;;7.20;;
2898;SDS011;1459;50.864;6.438;2022-10-04T01:36:39;16.45;;;7.00;;
2898;SDS011;1459;50.864;6.438;2022-10-04T01:39:08;7.63;;;6.28;;
2898;SDS011;1459;50.864;6.438;2022-10-04T01:41:37;16.42;;;6.32;;
2898;SDS011;1459;50.864;6.438;2022-10-04T01:44:11;10.05;;;6.93;;
2898;SDS011;1459;50.864;6.438;2022-10-04T01:46:47;9.63;;;7.25;;
2898;SDS011;1459;50.864;6.438;2022-10-04T01:49:17;9.35;;;6.38;;
2898;SDS011;1459;50.864;6.438;2022-10-04T01:51:47;10.43;;;6.55;;
2898;SDS011;1459;50.864;6.438;2022-10-04T01:54:23;8.27;;;6.25;;
2898;SDS011;1459;50.864;6.438;2022-10-04T01:57:00;10.02;;;6.82;;
2898;SDS011;1459;50.864;6.438;2022-10-04T01:59:36;11.20;;;6.38;;
2898;SDS011;1459;50.864;6.438;2022-10-04T02:02:08;13.45;;;6.97;;
2898;SDS011;1459;50.864;6.438;2022-10-04T02:04:42;7.72;;;5.50;;
2898;SDS011;1459;50.864;6.438;2022-10-04T02:07:16;11.23;;;6.30;;
2898;SDS011;1459;50.864;6.438;2022-10-04T02:09:46;9.07;;;6.25;;
2898;SDS011;1459;50.864;6.438;2022-10-04T02:12:19;8.95;;;6.65;;
2898;SDS011;1459;50.864;6.438;2022-10-04T02:14:49;11.13;;;6.78;;
2898;SDS011;1459;50.864;6.438;2022-10-04T02:17:18;8.10;;;6.35;;
2898;SDS011;1459;50.864;6.438;2022-10-04T02:19:48;9.35;;;6.35;;
2898;SDS011;1459;50.864;6.438;2022-10-04T02:22:15;9.90;;;7.60;;
2898;SDS011;1459;50.864;6.438;2022-10-04T02:24:45;7.78;;;6.97;;
2898;SDS011;1459;50.864;6.438;2022-10-04T02:27:14;9.20;;;6.65;;
2898;SDS011;1459;50.864;6.438;2022-10-04T02:29:41;9.05;;;7.13;;
2898;SDS011;1459;50.864;6.438;2022-10-04T02:32:08;8.02;;;6.15;;
2898;SDS011;1459;50.864;6.438;2022-10-04T02:34:54;10.70;;;7.00;;
2898;SDS011;1459;50.864;6.438;2022-10-04T02:37:22;9.23;;;6.20;;
2898;SDS011;1459;50.864;6.438;2022-10-04T02:39:54;9.27;;;7.90;;
2898;SDS011;1459;50.864;6.438;2022-10-04T02:42:27;8.10;;;6.25;;
2898;SDS011;1459;50.864;6.438;2022-10-04T02:45:04;8.30;;;6.18;;
2898;SDS011;1459;50.864;6.438;2022-10-04T02:47:41;10.00;;;6.35;;
2898;SDS011;1459;50.864;6.438;2022-10-04T02:50:16;15.73;;;6.95;;
2898;SDS011;1459;50.864;6.438;2022-10-04T02:52:52;10.90;;;7.50;;
2898;SDS011;1459;50.864;6.438;2022-10-04T02:55:25;11.38;;;6.53;;
2898;SDS011;1459;50.864;6.438;2022-10-04T02:57:54;7.65;;;6.10;;
2898;SDS011;1459;50.864;6.438;2022-10-04T03:00:23;7.93;;;6.47;;
2898;SDS011;1459;50.864;6.438;2022-10-04T03:03:11;10.27;;;5.63;;
2898;SDS011;1459;50.864;6.438;2022-10-04T03:05:42;9.57;;;6.63;;
2898;SDS011;1459;50.864;6.438;2022-10-04T03:08:12;9.30;;;5.80;;
2898;SDS011;1459;50.864;6.438;2022-10-04T03:10:42;12.52;;;7.03;;
2898;SDS011;1459;50.864;6.438;2022-10-04T03:13:09;12.68;;;7.30;;
2898;SDS011;1459;50.864;6.438;2022-10-04T03:15:40;10.88;;;6.50;;
2898;SDS011;1459;50.864;6.438;2022-10-04T03:18:07;8.45;;;5.70;;
2898;SDS011;1459;50.864;6.438;2022-10-04T03:20:35;11.35;;;6.85;;
2898;SDS011;1459;50.864;6.438;2022-10-04T03:23:03;9.35;;;6.05;;
2898;SDS011;1459;50.864;6.438;2022-10-04T03:25:44;6.35;;;5.60;;
2898;SDS011;1459;50.864;6.438;2022-10-04T03:28:17;5.95;;;5.32;;
2898;SDS011;1459;50.864;6.438;2022-10-04T03:30:45;6.90;;;5.25;;
2898;SDS011;1459;50.864;6.438;2022-10-04T03:33:16;9.00;;;5.75;;
2898;SDS011;1459;50.864;6.438;2022-10-04T03:35:47;6.15;;;5.45;;
2898;SDS011;1459;50.864;6.438;2022-10-04T03:38:17;9.45;;;5.63;;
2898;SDS011;1459;50.864;6.438;2022-10-04T03:40:46;11.05;;;6.60;;
2898;SDS011;1459;50.864;6.438;2022-10-04T03:43:21;11.93;;;6.05;;
2898;SDS011;1459;50.864;6.438;2022-10-04T03:45:51;6.43;;;5.40;;
2898;SDS011;1459;50.864;6.438;2022-10-04T03:48:21;10.15;;;5.90;;
2898;SDS011;1459;50.864;6.438;2022-10-04T03:50:53;8.43;;;6.60;;
2898;SDS011;1459;50.864;6.438;2022-10-04T03:53:26;8.60;;;5.85;;
2898;SDS011;1459;50.864;6.438;2022-10-04T03:55:58;9.77;;;5.40;;
2898;SDS011;1459;50.864;6.438;2022-10-04T03:58:27;8.80;;;6.20;;
2898;SDS011;1459;50.864;6.438;2022-10-04T04:01:05;5.47;;;4.97;;
2898;SDS011;1459;50.864;6.438;2022-10-04T04:03:45;6.22;;;5.22;;
2898;SDS011;1459;50.864;6.438;2022-10-04T04:06:22;5.78;;;5.10;;
2898;SDS011;1459;50.864;6.438;2022-10-04T04:08:52;7.95;;;5.07;;
2898;SDS011;1459;50.864;6.438;2022-10-04T04:11:23;9.93;;;7.25;;
2898;SDS011;1459;50.864;6.438;2022-10-04T04:13:54;6.47;;;5.05;;
2898;SDS011;1459;50.864;6.438;2022-10-04T04:16:27;9.68;;;5.55;;
2898;SDS011;1459;50.864;6.438;2022-10-04T04:18:57;6.28;;;5.68;;
2898;SDS011;1459;50.864;6.438;2022-10-04T04:21:26;10.32;;;5.78;;
2898;SDS011;1459;50.864;6.438;2022-10-04T04:23:54;10.55;;;5.90;;
2898;SDS011;1459;50.864;6.438;2022-10-04T04:26:26;10.70;;;6.28;;
2898;SDS011;1459;50.864;6.438;2022-10-04T04:29:01;5.72;;;5.20;;
2898;SDS011;1459;50.864;6.438;2022-10-04T04:31:32;8.68;;;7.15;;
2898;SDS011;1459;50.864;6.438;2022-10-04T04:34:13;8.52;;;6.95;;
2898;SDS011;1459;50.864;6.438;2022-10-04T04:36:43;7.72;;;6.45;;
2898;SDS011;1459;50.864;6.438;2022-10-04T04:39:13;9.80;;;6.82;;
2898;SDS011;1459;50.864;6.438;2022-10-04T04:42:04;15.85;;;7.45;;
2898;SDS011;1459;50.864;6.438;2022-10-04T04:44:38;12.40;;;8.05;;
2898;SDS011;1459;50.864;6.438;2022-10-04T04:47:17;12.05;;;6.22;;
2898;SDS011;1459;50.864;6.438;2022-10-04T04:49:51;10.63;;;6.05;;
2898;SDS011;1459;50.864;6.438;2022-10-04T04:52:20;9.50;;;5.90;;
2898;SDS011;1459;50.864;6.438;2022-10-04T04:54:52;8.45;;;6.65;;
2898;SDS011;1459;50.864;6.438;2022-10-04T04:57:22;10.20;;;6.53;;
2898;SDS011;1459;50.864;6.438;2022-10-04T04:59:49;8.18;;;5.45;;
2898;SDS011;1459;50.864;6.438;2022-10-04T05:02:30;7.82;;;6.55;;
2898;SDS011;1459;50.864;6.438;2022-10-04T05:05:09;11.25;;;6.10;;
2898;SDS011;1459;50.864;6.438;2022-10-04T05:07:44;8.48;;;5.93;;
2898;SDS011;1459;50.864;6.438;2022-10-04T05:10:18;8.70;;;7.07;;
2898;SDS011;1459;50.864;6.438;2022-10-04T05:12:48;8.45;;;6.35;;
2898;SDS011;1459;50.864;6.438;2022-10-04T05:15:16;11.48;;;7.38;;
2898;SDS011;1459;50.864;6.438;2022-10-04T05:17:43;7.60;;;5.28;;
2898;SDS011;1459;50.864;6.438;2022-10-04T05:20:11;8.00;;;6.13;;
2898;SDS011;1459;50.864;6.438;2022-10-04T05:22:40;7.22;;;5.90;;
2898;SDS011;1459;50.864;6.438;2022-10-04T05:25:13;15.95;;;6.30;;
2898;SDS011;1459;50.864;6.438;2022-10-04T05:27:44;7.70;;;6.05;;
2898;SDS011;1459;50.864;6.438;2022-10-04T05:30:15;6.40;;;5.80;;
2898;SDS011;1459;50.864;6.438;2022-10-04T05:32:56;9.80;;;6.15;;
2898;SDS011;1459;50.864;6.438;2022-10-04T05:35:27;10.65;;;6.10;;
2898;SDS011;1459;50.864;6.438;2022-10-04T05:37:59;11.90;;;6.93;;
2898;SDS011;1459;50.864;6.438;2022-10-04T05:40:34;12.65;;;6.63;;
2898;SDS011;1459;50.864;6.438;2022-10-04T05:43:28;9.57;;;6.28;;
2898;SDS011;1459;50.864;6.438;2022-10-04T05:48:50;9.15;;;6.35;;
2898;SDS011;1459;50.864;6.438;2022-10-04T05:51:20;7.93;;;5.28;;
2898;SDS011;1459;50.864;6.438;2022-10-04T05:53:49;6.75;;;6.05;;
2898;SDS011;1459;50.864;6.438;2022-10-04T05:56:24;9.48;;;6.40;;
2898;SDS011;1459;50.864;6.438;2022-10-04T05:59:12;13.55;;;6.05;;
2898;SDS011;1459;50.864;6.438;2022-10-04T06:01:53;9.00;;;5.43;;
2898;SDS011;1459;50.864;6.438;2022-10-04T06:04:37;10.10;;;6.65;;
2898;SDS011;1459;50.864;6.438;2022-10-04T06:07:14;9.30;;;5.78;;
2898;SDS011;1459;50.864;6.438;2022-10-04T06:13:13;14.43;;;7.07;;
2898;SDS011;1459;50.864;6.438;2022-10-04T06:15:55;8.93;;;6.35;;
2898;SDS011;1459;50.864;6.438;2022-10-04T06:18:43;7.05;;;6.25;;
2898;SDS011;1459;50.864;6.438;2022-10-04T06:21:33;10.85;;;6.55;;
2898;SDS011;1459;50.864;6.438;2022-10-04T06:24:10;11.93;;;7.75;;
2898;SDS011;1459;50.864;6.438;2022-10-04T06:26:42;11.93;;;7.32;;
2898;SDS011;1459;50.864;6.438;2022-10-04T06:29:14;9.93;;;6.13;;
2898;SDS011;1459;50.864;6.438;2022-10-04T06:31:50;10.90;;;7.55;;
2898;SDS011;1459;50.864;6.438;2022-10-04T06:34:39;18.23;;;7.50;;
2898;SDS011;1459;50.864;6.438;2022-10-04T06:40:27;11.75;;;6.72;;
2898;SDS011;1459;50.864;6.438;2022-10-04T06:43:19;18.50;;;7.45;;
2898;SDS011;1459;50.864;6.438;2022-10-04T06:46:06;14.95;;;8.23;;
2898;SDS011;1459;50.864;6.438;2022-10-04T06:51:41;12.23;;;7.13;;
2898;SDS011;1459;50.864;6.438;2022-10-04T06:54:26;15.57;;;8.10;;
2898;SDS011;1459;50.864;6.438;2022-10-04T06:57:16;11.43;;;7.68;;
2898;SDS011;1459;50.864;6.438;2022-10-04T07:00:08;14.20;;;6.45;;
2898;SDS011;1459;50.864;6.438;2022-10-04T07:02:42;14.65;;;8.10;;
2898;SDS011;1459;50.864;6.438;2022-10-04T07:05:15;13.55;;;7.03;;
2898;SDS011;1459;50.864;6.438;2022-10-04T07:07:52;8.90;;;6.68;;
2898;SDS011;1459;50.864;6.438;2022-10-04T07:10:33;11.70;;;7.25;;
2898;SDS011;1459;50.864;6.438;2022-10-04T07:16:10;12.70;;;7.88;;
2898;SDS011;1459;50.864;6.438;2022-10-04T07:18:52;12.50;;;6.80;;
2898;SDS011;1459;50.864;6.438;2022-10-04T07:21:23;18.05;;;7.50;;
2898;SDS011;1459;50.864;6.438;2022-10-04T07:23:55;9.93;;;6.65;;
2898;SDS011;1459;50.864;6.438;2022-10-04T07:26:26;11.25;;;6.65;;
2898;SDS011;1459;50.864;6.438;2022-10-04T07:28:57;15.07;;;7.30;;
2898;SDS011;1459;50.864;6.438;2022-10-04T07:31:46;12.45;;;9.82;;
2898;SDS011;1459;50.864;6.438;2022-10-04T07:34:19;9.55;;;7.40;;
2898;SDS011;1459;50.864;6.438;2022-10-04T07:36:51;10.90;;;6.65;;
2898;SDS011;1459;50.864;6.438;2022-10-04T07:39:22;10.18;;;7.60;;
2898;SDS011;1459;50.864;6.438;2022-10-04T07:41:51;9.50;;;6.65;;
2898;SDS011;1459;50.864;6.438;2022-10-04T07:44:33;17.40;;;8.18;;
2898;SDS011;1459;50.864;6.438;2022-10-04T07:47:04;11.85;;;6.50;;
2898;SDS011;1459;50.864;6.438;2022-10-04T07:49:38;12.73;;;7.82;;
2898;SDS011;1459;50.864;6.438;2022-10-04T07:55:01;11.05;;;7.65;;
2898;SDS011;1459;50.864;6.438;2022-10-04T07:57:37;22.50;;;7.90;;
2898;SDS011;1459;50.864;6.438;2022-10-04T08:00:11;14.00;;;8.27;;
2898;SDS011;1459;50.864;6.438;2022-10-04T08:02:46;10.77;;;6.80;;
2898;SDS011;1459;50.864;6.438;2022-10-04T08:05:26;12.52;;;7.35;;
2898;SDS011;1459;50.864;6.438;2022-10-04T08:08:03;9.95;;;7.00;;
2898;SDS011;1459;50.864;6.438;2022-10-04T08:10:45;11.15;;;7.32;;
2898;SDS011;1459;50.864;6.438;2022-10-04T08:13:21;13.65;;;7.28;;
2898;SDS011;1459;50.864;6.438;2022-10-04T08:15:53;17.85;;;7.47;;
2898;SDS011;1459;50.864;6.438;2022-10-04T08:18:30;10.35;;;7.93;;
2898;SDS011;1459;50.864;6.438;2022-10-04T08:21:08;19.40;;;7.18;;
2898;SDS011;1459;50.864;6.438;2022-10-04T08:23:44;13.32;;;7.15;;
2898;SDS011;1459;50.864;6.438;2022-10-04T08:26:49;12.43;;;7.10;;
2898;SDS011;1459;50.864;6.438;2022-10-04T08:29:38;11.43;;;7.07;;
2898;SDS011;1459;50.864;6.438;2022-10-04T08:38:05;13.32;;;8.77;;
2898;SDS011;1459;50.864;6.438;2022-10-04T08:40:57;12.10;;;7.88;;
2898;SDS011;1459;50.864;6.438;2022-10-04T08:47:06;10.43;;;8.13;;
2898;SDS011;1459;50.864;6.438;2022-10-04T08:49:59;11.45;;;6.88;;
2898;SDS011;1459;50.864;6.438;2022-10-04T08:52:55;10.60;;;8.00;;
2898;SDS011;1459;50.864;6.438;2022-10-04T08:56:08;16.98;;;7.53;;
2898;SDS011;1459;50.864;6.438;2022-10-04T09:02:07;14.10;;;8.00;;
2898;SDS011;1459;50.864;6.438;2022-10-04T09:05:05;8.85;;;6.88;;
2898;SDS011;1459;50.864;6.438;2022-10-04T09:10:57;16.75;;;6.20;;
2898;SDS011;1459;50.864;6.438;2022-10-04T09:13:56;7.90;;;6.85;;
2898;SDS011;1459;50.864;6.438;2022-10-04T09:16:40;10.57;;;6.85;;
2898;SDS011;1459;50.864;6.438;2022-10-04T09:19:22;9.15;;;7.07;;
2898;SDS011;1459;50.864;6.438;2022-10-04T09:22:08;10.60;;;6.45;;
2898;SDS011;1459;50.864;6.438;2022-10-04T09:24:50;9.52;;;5.93;;
2898;SDS011;1459;50.864;6.438;2022-10-04T09:27:41;7.38;;;6.10;;
2898;SDS011;1459;50.864;6.438;2022-10-04T09:30:22;10.93;;;6.20;;
2898;SDS011;1459;50.864;6.438;2022-10-04T09:36:25;9.52;;;6.68;;
2898;SDS011;1459;50.864;6.438;2022-10-04T09:39:10;11.68;;;6.25;;
2898;SDS011;1459;50.864;6.438;2022-10-04T09:41:49;6.75;;;5.78;;
2898;SDS011;1459;50.864;6.438;2022-10-04T09:44:45;6.88;;;5.32;;
2898;SDS011;1459;50.864;6.438;2022-10-04T09:47:30;11.95;;;5.90;;
2898;SDS011;1459;50.864;6.438;2022-10-04T09:53:22;13.48;;;6.07;;
2898;SDS011;1459;50.864;6.438;2022-10-04T09:56:07;7.18;;;5.10;;
2898;SDS011;1459;50.864;6.438;2022-10-04T09:59:09;7.10;;;5.85;;
2898;SDS011;1459;50.864;6.438;2022-10-04T10:01:57;8.98;;;6.18;;
2898;SDS011;1459;50.864;6.438;2022-10-04T10:04:39;6.13;;;4.68;;
2898;SDS011;1459;50.864;6.438;2022-10-04T10:07:20;6.28;;;4.75;;
2898;SDS011;1459;50.864;6.438;2022-10-04T10:10:01;8.40;;;5.15;;
2898;SDS011;1459;50.864;6.438;2022-10-04T10:13:05;7.32;;;5.18;;
2898;SDS011;1459;50.864;6.438;2022-10-04T10:16:03;8.30;;;5.47;;
2898;SDS011;1459;50.864;6.438;2022-10-04T10:18:42;8.15;;;4.97;;
2898;SDS011;1459;50.864;6.438;2022-10-04T10:24:30;7.07;;;5.18;;
2898;SDS011;1459;50.864;6.438;2022-10-04T10:27:40;5.78;;;4.50;;
2898;SDS011;1459;50.864;6.438;2022-10-04T10:30:19;4.85;;;3.80;;
2898;SDS011;1459;50.864;6.438;2022-10-04T10:33:04;7.47;;;4.13;;
2898;SDS011;1459;50.864;6.438;2022-10-04T10:36:06;4.93;;;4.40;;
2898;SDS011;1459;50.864;6.438;2022-10-04T10:39:13;6.32;;;3.70;;
2898;SDS011;1459;50.864;6.438;2022-10-04T10:41:53;4.20;;;3.80;;
2898;SDS011;1459;50.864;6.438;2022-10-04T10:44:42;5.78;;;4.35;;
2898;SDS011;1459;50.864;6.438;2022-10-04T10:47:31;6.00;;;4.72;;
2898;SDS011;1459;50.864;6.438;2022-10-04T10:56:33;10.68;;;4.93;;
2898;SDS011;1459;50.864;6.438;2022-10-04T10:59:21;7.75;;;5.38;;
2898;SDS011;1459;50.864;6.438;2022-10-04T11:08:38;6.90;;;4.47;;
2898;SDS011;1459;50.864;6.438;2022-10-04T11:11:48;9.65;;;5.53;;
2898;SDS011;1459;50.864;6.438;2022-10-04T11:14:38;7.47;;;4.40;;
2898;SDS011;1459;50.864;6.438;2022-10-04T11:17:28;11.70;;;4.88;;
2898;SDS011;1459;50.864;6.438;2022-10-04T11:20:19;7.93;;;4.40;;
2898;SDS011;1459;50.864;6.438;2022-10-04T11:23:19;7.85;;;4.60;;
2898;SDS011;1459;50.864;6.438;2022-10-04T11:29:14;7.50;;;4.75;;
2898;SDS011;1459;50.864;6.438;2022-10-04T11:38:04;6.65;;;4.28;;
2898;SDS011;1459;50.864;6.438;2022-10-04T11:40:46;7.00;;;4.72;;
2898;SDS011;1459;50.864;6.438;2022-10-04T11:43:28;5.70;;;4.30;;
2898;SDS011;1459;50.864;6.438;2022-10-04T11:46:12;9.40;;;4.15;;
2898;SDS011;1459;50.864;6.438;2022-10-04T11:48:54;5.90;;;4.22;;
2898;SDS011;1459;50.864;6.438;2022-10-04T11:51:46;7.60;;;4.00;;
2898;SDS011;1459;50.864;6.438;2022-10-04T11:54:39;5.40;;;4.53;;
2898;SDS011;1459;50.864;6.438;2022-10-04T11:57:25;9.10;;;5.05;;
2898;SDS011;1459;50.864;6.438;2022-10-04T12:00:07;7.15;;;4.38;;
2898;SDS011;1459;50.864;6.438;2022-10-04T12:05:52;7.63;;;4.88;;
2898;SDS011;1459;50.864;6.438;2022-10-04T12:08:32;9.43;;;3.70;;
2898;SDS011;1459;50.864;6.438;2022-10-04T12:11:27;7.10;;;4.75;;
2898;SDS011;1459;50.864;6.438;2022-10-04T12:14:41;6.63;;;4.30;;
2898;SDS011;1459;50.864;6.438;2022-10-04T12:17:35;7.15;;;4.68;;
2898;SDS011;1459;50.864;6.438;2022-10-04T12:20:31;6.75;;;3.67;;
2898;SDS011;1459;50.864;6.438;2022-10-04T12:23:29;8.27;;;3.95;;
2898;SDS011;1459;50.864;6.438;2022-10-04T12:26:25;6.03;;;3.90;;
2898;SDS011;1459;50.864;6.438;2022-10-04T12:32:30;5.57;;;3.65;;
2898;SDS011;1459;50.864;6.438;2022-10-04T12:35:06;9.43;;;4.18;;
2898;SDS011;1459;50.864;6.438;2022-10-04T12:37:50;5.15;;;3.42;;
2898;SDS011;1459;50.864;6.438;2022-10-04T12:40:39;4.05;;;3.60;;
2898;SDS011;1459;50.864;6.438;2022-10-04T12:43:17;6.40;;;3.75;;
2898;SDS011;1459;50.864;6.438;2022-10-04T12:45:55;7.93;;;4.18;;
2898;SDS011;1459;50.864;6.438;2022-10-04T12:48:42;5.50;;;4.15;;
2898;SDS011;1459;50.864;6.438;2022-10-04T12:51:26;18.00;;;6.10;;
2898;SDS011;1459;50.864;6.438;2022-10-04T12:54:10;7.28;;;4.03;;
2898;SDS011;1459;50.864;6.438;2022-10-04T12:56:58;5.47;;;3.58;;
2898;SDS011;1459;50.864;6.438;2022-10-04T12:59:55;5.30;;;3.80;;
2898;SDS011;1459;50.864;6.438;2022-10-04T13:02:37;11.45;;;4.30;;
2898;SDS011;1459;50.864;6.438;2022-10-04T13:05:25;8.35;;;3.35;;
2898;SDS011;1459;50.864;6.438;2022-10-04T13:10:56;5.68;;;3.17;;
2898;SDS011;1459;50.864;6.438;2022-10-04T13:13:42;3.28;;;2.92;;
2898;SDS011;1459;50.864;6.438;2022-10-04T13:16:26;7.07;;;3.85;;
2898;SDS011;1459;50.864;6.438;2022-10-04T13:19:04;6.55;;;3.38;;
2898;SDS011;1459;50.864;6.438;2022-10-04T13:24:37;6.40;;;3.83;;
2898;SDS011;1459;50.864;6.438;2022-10-04T13:27:30;8.50;;;3.53;;
2898;SDS011;1459;50.864;6.438;2022-10-04T13:30:06;6.05;;;3.13;;
2898;SDS011;1459;50.864;6.438;2022-10-04T13:32:43;5.07;;;3.78;;
2898;SDS011;1459;50.864;6.438;2022-10-04T13:35:22;5.53;;;4.10;;
2898;SDS011;1459;50.864;6.438;2022-10-04T13:37:57;3.90;;;3.50;;
2898;SDS011;1459;50.864;6.438;2022-10-04T13:40:51;3.97;;;3.17;;
2898;SDS011;1459;50.864;6.438;2022-10-04T13:43:33;5.25;;;3.00;;
2898;SDS011;1459;50.864;6.438;2022-10-04T13:46:24;8.27;;;2.88;;
2898;SDS011;1459;50.864;6.438;2022-10-04T13:49:06;4.38;;;3.13;;
2898;SDS011;1459;50.864;6.438;2022-10-04T13:51:48;4.22;;;2.75;;
2898;SDS011;1459;50.864;6.438;2022-10-04T13:54:51;4.93;;;3.70;;
2898;SDS011;1459;50.864;6.438;2022-10-04T13:57:50;4.00;;;2.55;;
2898;SDS011;1459;50.864;6.438;2022-10-04T14:00:30;4.15;;;2.42;;
2898;SDS011;1459;50.864;6.438;2022-10-04T14:03:17;7.07;;;2.72;;
2898;SDS011;1459;50.864;6.438;2022-10-04T14:06:10;6.75;;;4.70;;
2898;SDS011;1459;50.864;6.438;2022-10-04T14:09:26;3.50;;;2.40;;
2898;SDS011;1459;50.864;6.438;2022-10-04T14:12:45;5.32;;;2.67;;
2898;SDS011;1459;50.864;6.438;2022-10-04T14:15:39;7.30;;;2.83;;
2898;SDS011;1459;50.864;6.438;2022-10-04T14:18:37;4.03;;;2.33;;
2898;SDS011;1459;50.864;6.438;2022-10-04T14:21:36;3.97;;;2.30;;
2898;SDS011;1459;50.864;6.438;2022-10-04T14:24:41;3.25;;;2.50;;
2898;SDS011;1459;50.864;6.438;2022-10-04T14:30:36;2.97;;;2.10;;
2898;SDS011;1459;50.864;6.438;2022-10-04T14:36:23;3.88;;;2.30;;
2898;SDS011;1459;50.864;6.438;2022-10-04T14:39:22;3.70;;;2.03;;
2898;SDS011;1459;50.864;6.438;2022-10-04T14:42:22;4.28;;;2.40;;
2898;SDS011;1459;50.864;6.438;2022-10-04T14:50:52;4.60;;;2.60;;
2898;SDS011;1459;50.864;6.438;2022-10-04T14:53:48;4.05;;;2.30;;
2898;SDS011;1459;50.864;6.438;2022-10-04T14:56:40;4.85;;;2.28;;
2898;SDS011;1459;50.864;6.438;2022-10-04T14:59:27;8.82;;;3.08;;
2898;SDS011;1459;50.864;6.438;2022-10-04T15:05:28;5.90;;;2.50;;
2898;SDS011;1459;50.864;6.438;2022-10-04T15:08:13;8.85;;;3.90;;
2898;SDS011;1459;50.864;6.438;2022-10-04T15:11:04;6.00;;;3.22;;
2898;SDS011;1459;50.864;6.438;2022-10-04T15:13:36;7.22;;;3.20;;
2898;SDS011;1459;50.864;6.438;2022-10-04T15:16:21;8.25;;;3.00;;
2898;SDS011;1459;50.864;6.438;2022-10-04T15:19:00;8.48;;;3.17;;
2898;SDS011;1459;50.864;6.438;2022-10-04T15:21:41;4.15;;;2.92;;
2898;SDS011;1459;50.864;6.438;2022-10-04T15:24:22;7.18;;;3.00;;
2898;SDS011;1459;50.864;6.438;2022-10-04T15:26:56;3.90;;;2.83;;
2898;SDS011;1459;50.864;6.438;2022-10-04T15:29:50;6.13;;;3.10;;
2898;SDS011;1459;50.864;6.438;2022-10-04T15:32:23;6.35;;;3.28;;
2898;SDS011;1459;50.864;6.438;2022-10-04T15:35:04;10.70;;;3.40;;
2898;SDS011;1459;50.864;6.438;2022-10-04T15:37:40;6.70;;;2.70;;
2898;SDS011;1459;50.864;6.438;2022-10-04T15:40:14;9.63;;;2.65;;
2898;SDS011;1459;50.864;6.438;2022-10-04T15:42:55;5.47;;;2.65;;
2898;SDS011;1459;50.864;6.438;2022-10-04T15:48:27;10.02;;;3.70;;
2898;SDS011;1459;50.864;6.438;2022-10-04T15:51:02;6.78;;;3.00;;
2898;SDS011;1459;50.864;6.438;2022-10-04T15:53:41;7.37;;;2.97;;
2898;SDS011;1459;50.864;6.438;2022-10-04T15:56:11;9.40;;;2.83;;
2898;SDS011;1459;50.864;6.438;2022-10-04T15:58:50;5.30;;;2.80;;
2898;SDS011;1459;50.864;6.438;2022-10-04T16:01:25;8.23;;;2.77;;
2898;SDS011;1459;50.864;6.438;2022-10-04T16:04:09;5.80;;;2.83;;
2898;SDS011;1459;50.864;6.438;2022-10-04T16:06:41;7.43;;;2.97;;
2898;SDS011;1459;50.864;6.438;2022-10-04T16:09:14;9.07;;;3.57;;
2898;SDS011;1459;50.864;6.438;2022-10-04T16:11:45;5.97;;;3.00;;
2898;SDS011;1459;50.864;6.438;2022-10-04T16:14:23;6.83;;;2.90;;
2898;SDS011;1459;50.864;6.438;2022-10-04T16:17:12;4.97;;;3.47;;
2898;SDS011;1459;50.864;6.438;2022-10-04T16:20:11;9.50;;;7.57;;
2898;SDS011;1459;50.864;6.438;2022-10-04T16:25:53;5.50;;;4.78;;
2898;SDS011;1459;50.864;6.438;2022-10-04T16:28:22;4.38;;;3.97;;
2898;SDS011;1459;50.864;6.438;2022-10-04T16:31:16;9.48;;;3.40;;
2898;SDS011;1459;50.864;6.438;2022-10-04T16:34:07;5.78;;;3.20;;
2898;SDS011;1459;50.864;6.438;2022-10-04T16:36:53;6.95;;;3.20;;
2898;SDS011;1459;50.864;6.438;2022-10-04T16:39:34;3.55;;;2.70;;
2898;SDS011;1459;50.864;6.438;2022-10-04T16:42:21;4.07;;;2.58;;
2898;SDS011;1459;50.864;6.438;2022-10-04T16:44:51;5.03;;;2.65;;
2898;SDS011;1459;50.864;6.438;2022-10-04T16:47:22;5.20;;;3.40;;
2898;SDS011;1459;50.864;6.438;2022-10-04T16:49:55;5.03;;;3.90;;
2898;SDS011;1459;50.864;6.438;2022-10-04T16:52:27;5.80;;;4.47;;
2898;SDS011;1459;50.864;6.438;2022-10-04T17:01:28;5.20;;;3.80;;
2898;SDS011;1459;50.864;6.438;2022-10-04T17:06:58;8.23;;;3.90;;
2898;SDS011;1459;50.864;6.438;2022-10-04T17:09:28;7.10;;;4.35;;
2898;SDS011;1459;50.864;6.438;2022-10-04T17:12:02;7.03;;;4.30;;
2898;SDS011;1459;50.864;6.438;2022-10-04T17:14:59;7.20;;;4.93;;
2898;SDS011;1459;50.864;6.438;2022-10-04T17:17:50;5.10;;;4.30;;
2898;SDS011;1459;50.864;6.438;2022-10-04T17:20:28;7.45;;;4.32;;
2898;SDS011;1459;50.864;6.438;2022-10-04T17:23:18;9.13;;;4.68;;
2898;SDS011;1459;50.864;6.438;2022-10-04T17:25:58;8.77;;;6.50;;
2898;SDS011;1459;50.864;6.438;2022-10-04T17:28:40;9.13;;;7.07;;
2898;SDS011;1459;50.864;6.438;2022-10-04T17:31:16;11.73;;;6.53;;
2898;SDS011;1459;50.864;6.438;2022-10-04T17:33:53;10.18;;;6.57;;
2898;SDS011;1459;50.864;6.438;2022-10-04T17:39:24;7.90;;;4.90;;
2898;SDS011;1459;50.864;6.438;2022-10-04T17:42:19;6.35;;;5.60;;
2898;SDS011;1459;50.864;6.438;2022-10-04T17:45:13;8.13;;;6.30;;
2898;SDS011;1459;50.864;6.438;2022-10-04T17:47:53;8.00;;;7.00;;
2898;SDS011;1459;50.864;6.438;2022-10-04T17:50:45;7.60;;;5.82;;
2898;SDS011;1459;50.864;6.438;2022-10-04T17:53:40;8.80;;;5.30;;
2898;SDS011;1459;50.864;6.438;2022-10-04T17:56:31;5.65;;;4.68;;
2898;SDS011;1459;50.864;6.438;2022-10-04T17:59:04;5.05;;;4.30;;
2898;SDS011;1459;50.864;6.438;2022-10-04T18:01:37;7.30;;;4.85;;
2898;SDS011;1459;50.864;6.438;2022-10-04T18:04:12;6.47;;;5.40;;
2898;SDS011;1459;50.864;6.438;2022-10-04T18:06:45;7.63;;;4.68;;
2898;SDS011;1459;50.864;6.438;2022-10-04T18:09:21;6.60;;;5.40;;
2898;SDS011;1459;50.864;6.438;2022-10-04T18:11:54;5.40;;;4.78;;
2898;SDS011;1459;50.864;6.438;2022-10-04T18:17:20;10.35;;;6.00;;
2898;SDS011;1459;50.864;6.438;2022-10-04T18:22:54;6.95;;;5.07;;
2898;SDS011;1459;50.864;6.438;2022-10-04T18:25:25;6.53;;;5.18;;
2898;SDS011;1459;50.864;6.438;2022-10-04T18:27:59;7.65;;;5.30;;
2898;SDS011;1459;50.864;6.438;2022-10-04T18:30:30;7.35;;;5.40;;
2898;SDS011;1459;50.864;6.438;2022-10-04T18:32:59;8.15;;;6.20;;
2898;SDS011;1459;50.864;6.438;2022-10-04T18:35:29;9.23;;;5.78;;